AFR1450 KLAX-LFPG
Flight info
| Callsign | AFR1450 |
|---|---|
| Flight time | N/A |
| Altitude | 33000 |
| Route | ORCKA5 LAS DCT BAWER DCT HVE DCT CYS DCT BFF DCT DLH DCT AGLIN DCT 50N086W 5330N08000W 5830N07000W/N0476F350 DCT GRIBS/M083F350 DCT KETLA DCT 63N050W 6230N04000W 61N030W 59N020W DCT AGORI/N0476F350 DCT OSBOX DCT APSOV DCT PEPOD DCT MAKUX DCT SOSIM L15 KEPAD L151 MID/N0486F290 Y803 SFD UM605 BIBAX |
| Aircraft | A339/H-SADE1E2E3GHIJ3J5M1P2RWXY/LB2D1 |
Departure
| Time | 2026-05-05 00:06 |
|---|---|
| Airport | Los Angeles International Airport (KLAX) |
Arrival
| Time | N/A |
|---|---|
| Airport | Charles de Gaulle International Airport (LFPG) |
| Time | Latitude | Longitude | Altitude | Speed | Heading |
|---|---|---|---|---|---|
| 2026-05-04 23:38 | 33.94403 | -118.41131 | 128 ft | 0 kts | 83° |
| 2026-05-04 23:51 | 33.94402 | -118.41148 | 128 ft | 2 kts | 83° |
| 2026-05-04 23:51 | 33.94400 | -118.41166 | 128 ft | 2 kts | 83° |
| 2026-05-04 23:51 | 33.94398 | -118.41184 | 128 ft | 2 kts | 84° |
| 2026-05-04 23:52 | 33.94398 | -118.41203 | 128 ft | 2 kts | 105° |
| 2026-05-04 23:52 | 33.94404 | -118.41220 | 128 ft | 2 kts | 123° |
| 2026-05-04 23:52 | 33.94414 | -118.41234 | 128 ft | 2 kts | 141° |
| 2026-05-04 23:52 | 33.94426 | -118.41244 | 128 ft | 2 kts | 158° |
| 2026-05-04 23:53 | 33.94439 | -118.41248 | 128 ft | 0 kts | 173° |
| 2026-05-04 23:53 | 33.94443 | -118.41248 | 128 ft | 0 kts | 174° |
| 2026-05-04 23:55 | 33.94421 | -118.41246 | 128 ft | 4 kts | 174° |
| 2026-05-04 23:56 | 33.94381 | -118.41240 | 128 ft | 6 kts | 173° |
| 2026-05-04 23:56 | 33.94331 | -118.41233 | 128 ft | 7 kts | 174° |
| 2026-05-04 23:56 | 33.94281 | -118.41226 | 129 ft | 6 kts | 173° |
| 2026-05-04 23:56 | 33.94236 | -118.41219 | 130 ft | 6 kts | 173° |
| 2026-05-04 23:57 | 33.94188 | -118.41212 | 130 ft | 7 kts | 173° |
| 2026-05-04 23:57 | 33.94129 | -118.41206 | 130 ft | 9 kts | 174° |
| 2026-05-04 23:57 | 33.94053 | -118.41194 | 130 ft | 11 kts | 173° |
| 2026-05-04 23:57 | 33.93976 | -118.41181 | 131 ft | 10 kts | 172° |
| 2026-05-04 23:58 | 33.93908 | -118.41170 | 133 ft | 9 kts | 174° |
| 2026-05-04 23:58 | 33.93847 | -118.41163 | 134 ft | 8 kts | 174° |
| 2026-05-04 23:58 | 33.93787 | -118.41139 | 134 ft | 10 kts | 142° |
| 2026-05-04 23:58 | 33.93771 | -118.41067 | 134 ft | 9 kts | 86° |
| 2026-05-04 23:59 | 33.93778 | -118.40981 | 134 ft | 10 kts | 84° |
| 2026-05-04 23:59 | 33.93789 | -118.40878 | 134 ft | 14 kts | 83° |
| 2026-05-04 23:59 | 33.93802 | -118.40757 | 134 ft | 15 kts | 83° |
| 2026-05-04 23:59 | 33.93815 | -118.40624 | 133 ft | 16 kts | 83° |
| 2026-05-05 00:00 | 33.93830 | -118.40474 | 131 ft | 19 kts | 83° |
| 2026-05-05 00:00 | 33.93835 | -118.40419 | 129 ft | 19 kts | 83° |
| 2026-05-05 00:00 | 33.93864 | -118.40140 | 127 ft | 20 kts | 83° |
| 2026-05-05 00:00 | 33.93883 | -118.39968 | 124 ft | 21 kts | 83° |
| 2026-05-05 00:01 | 33.93901 | -118.39788 | 120 ft | 22 kts | 83° |
| 2026-05-05 00:01 | 33.93921 | -118.39602 | 118 ft | 22 kts | 83° |
| 2026-05-05 00:01 | 33.93939 | -118.39418 | 116 ft | 22 kts | 83° |
| 2026-05-05 00:01 | 33.93959 | -118.39230 | 115 ft | 22 kts | 83° |
| 2026-05-05 00:02 | 33.93977 | -118.39046 | 112 ft | 22 kts | 83° |
| 2026-05-05 00:02 | 33.93997 | -118.38859 | 112 ft | 21 kts | 83° |
| 2026-05-05 00:02 | 33.94015 | -118.38676 | 112 ft | 21 kts | 83° |
| 2026-05-05 00:02 | 33.94032 | -118.38506 | 112 ft | 20 kts | 83° |
| 2026-05-05 00:03 | 33.94049 | -118.38332 | 108 ft | 21 kts | 83° |
| 2026-05-05 00:03 | 33.94068 | -118.38160 | 109 ft | 20 kts | 83° |
| 2026-05-05 00:03 | 33.94076 | -118.38065 | 109 ft | 6 kts | 94° |
| 2026-05-05 00:03 | 33.94054 | -118.38010 | 109 ft | 7 kts | 130° |
| 2026-05-05 00:04 | 33.94015 | -118.38005 | 109 ft | 5 kts | 209° |
| 2026-05-05 00:04 | 33.93990 | -118.38045 | 109 ft | 6 kts | 244° |
| 2026-05-05 00:04 | 33.93977 | -118.38099 | 109 ft | 7 kts | 263° |
| 2026-05-05 00:04 | 33.93976 | -118.38110 | 109 ft | 0 kts | 263° |
| 2026-05-05 00:05 | 33.93964 | -118.38232 | 109 ft | 41 kts | 263° |
| 2026-05-05 00:05 | 33.93903 | -118.38819 | 112 ft | 98 kts | 263° |
| 2026-05-05 00:05 | 33.93797 | -118.39828 | 122 ft | 145 kts | 263° |
| 2026-05-05 00:06 | 33.93657 | -118.41212 | 155 ft | 182 kts | 261° |
| 2026-05-05 00:06 | 33.93522 | -118.42731 | 652 ft | 185 kts | 262° |
| 2026-05-05 00:06 | 33.93359 | -118.44274 | 1278 ft | 186 kts | 261° |
| 2026-05-05 00:06 | 33.93189 | -118.45806 | 1929 ft | 184 kts | 261° |
| 2026-05-05 00:07 | 33.92919 | -118.47327 | 2212 ft | 193 kts | 251° |
| 2026-05-05 00:07 | 33.92444 | -118.48888 | 2450 ft | 206 kts | 248° |
| 2026-05-05 00:07 | 33.91890 | -118.50555 | 2712 ft | 220 kts | 248° |
| 2026-05-05 00:07 | 33.91297 | -118.52302 | 2979 ft | 234 kts | 248° |
| 2026-05-05 00:08 | 33.90525 | -118.54100 | 3237 ft | 249 kts | 228° |
| 2026-05-05 00:08 | 33.89084 | -118.55270 | 3546 ft | 263 kts | 198° |
| 2026-05-05 00:08 | 33.87217 | -118.55377 | 4002 ft | 274 kts | 167° |
| 2026-05-05 00:08 | 33.85559 | -118.54269 | 4531 ft | 282 kts | 134° |
| 2026-05-05 00:09 | 33.84627 | -118.52222 | 5043 ft | 286 kts | 101° |
| 2026-05-05 00:09 | 33.84758 | -118.49824 | 5502 ft | 289 kts | 66° |
| 2026-05-05 00:09 | 33.85923 | -118.47917 | 5921 ft | 289 kts | 33° |
| 2026-05-05 00:09 | 33.87685 | -118.46752 | 6372 ft | 289 kts | 22° |
| 2026-05-05 00:10 | 33.89531 | -118.45762 | 6800 ft | 291 kts | 22° |
| 2026-05-05 00:10 | 33.91360 | -118.44739 | 7227 ft | 294 kts | 25° |
| 2026-05-05 00:10 | 33.93085 | -118.43340 | 7671 ft | 299 kts | 42° |
| 2026-05-05 00:10 | 33.94422 | -118.41430 | 8151 ft | 302 kts | 53° |
| 2026-05-05 00:11 | 33.95616 | -118.39343 | 8634 ft | 304 kts | 56° |
| 2026-05-05 00:11 | 33.96785 | -118.37232 | 9099 ft | 306 kts | 56° |
| 2026-05-05 00:11 | 33.97980 | -118.35077 | 9569 ft | 308 kts | 55° |
| 2026-05-05 00:11 | 33.99187 | -118.32928 | 10018 ft | 311 kts | 55° |
| 2026-05-05 00:12 | 34.00404 | -118.30767 | 10358 ft | 318 kts | 55° |
| 2026-05-05 00:12 | 34.01680 | -118.28522 | 10569 ft | 330 kts | 54° |
| 2026-05-05 00:12 | 34.02992 | -118.26218 | 10776 ft | 342 kts | 55° |
| 2026-05-05 00:12 | 34.04361 | -118.23811 | 10982 ft | 353 kts | 55° |
| 2026-05-05 00:13 | 34.05782 | -118.21303 | 11186 ft | 365 kts | 56° |
| 2026-05-05 00:13 | 34.07220 | -118.18749 | 11381 ft | 376 kts | 56° |
| 2026-05-05 00:13 | 34.08712 | -118.16104 | 11574 ft | 388 kts | 55° |
| 2026-05-05 00:13 | 34.10258 | -118.13372 | 11786 ft | 398 kts | 56° |
| 2026-05-05 00:14 | 34.11843 | -118.10565 | 12148 ft | 404 kts | 56° |
| 2026-05-05 00:14 | 34.13426 | -118.07760 | 12655 ft | 407 kts | 56° |
| 2026-05-05 00:14 | 34.15043 | -118.04896 | 13076 ft | 410 kts | 56° |
| 2026-05-05 00:14 | 34.16662 | -118.02018 | 13424 ft | 414 kts | 55° |
| 2026-05-05 00:15 | 34.18305 | -117.99119 | 13729 ft | 418 kts | 56° |
| 2026-05-05 00:15 | 34.19937 | -117.96204 | 14008 ft | 421 kts | 55° |
| 2026-05-05 00:15 | 34.21579 | -117.93282 | 14394 ft | 423 kts | 55° |
| 2026-05-05 00:15 | 34.23234 | -117.90344 | 14763 ft | 426 kts | 55° |
| 2026-05-05 00:16 | 34.24921 | -117.87337 | 15174 ft | 430 kts | 55° |
| 2026-05-05 00:16 | 34.26593 | -117.84354 | 15630 ft | 433 kts | 55° |
| 2026-05-05 00:16 | 34.28317 | -117.81272 | 16096 ft | 435 kts | 55° |
| 2026-05-05 00:16 | 34.30022 | -117.78222 | 16487 ft | 439 kts | 55° |
| 2026-05-05 00:17 | 34.31767 | -117.75097 | 16872 ft | 442 kts | 55° |
| 2026-05-05 00:17 | 34.33499 | -117.71993 | 17228 ft | 445 kts | 55° |
| 2026-05-05 00:17 | 34.35239 | -117.68881 | 17559 ft | 448 kts | 54° |
| 2026-05-05 00:17 | 34.37049 | -117.65796 | 17904 ft | 451 kts | 53° |
| 2026-05-05 00:18 | 34.38903 | -117.62717 | 18249 ft | 453 kts | 53° |
| 2026-05-05 00:18 | 34.40765 | -117.59629 | 18594 ft | 456 kts | 53° |
| 2026-05-05 00:18 | 34.42630 | -117.56528 | 18906 ft | 459 kts | 53° |
| 2026-05-05 00:18 | 34.44526 | -117.53359 | 19213 ft | 463 kts | 53° |
| 2026-05-05 00:19 | 34.46408 | -117.50203 | 19518 ft | 468 kts | 53° |
| 2026-05-05 00:19 | 34.48306 | -117.47014 | 19840 ft | 471 kts | 53° |
| 2026-05-05 00:19 | 34.50237 | -117.43771 | 20148 ft | 475 kts | 53° |
| 2026-05-05 00:19 | 34.52182 | -117.40502 | 20442 ft | 480 kts | 53° |
| 2026-05-05 00:20 | 34.54136 | -117.37213 | 20732 ft | 484 kts | 53° |
| 2026-05-05 00:20 | 34.56115 | -117.33876 | 21013 ft | 488 kts | 54° |
| 2026-05-05 00:20 | 34.58096 | -117.30535 | 21260 ft | 493 kts | 54° |
| 2026-05-05 00:20 | 34.60121 | -117.27111 | 21522 ft | 496 kts | 54° |
| 2026-05-05 00:21 | 34.62124 | -117.23720 | 21771 ft | 500 kts | 54° |
| 2026-05-05 00:21 | 34.64167 | -117.20258 | 22034 ft | 504 kts | 54° |
| 2026-05-05 00:21 | 34.66187 | -117.16830 | 22294 ft | 507 kts | 54° |
| 2026-05-05 00:21 | 34.68253 | -117.13325 | 22555 ft | 510 kts | 54° |
| 2026-05-05 00:22 | 34.70310 | -117.09832 | 22805 ft | 514 kts | 54° |
| 2026-05-05 00:22 | 34.72384 | -117.06304 | 23045 ft | 517 kts | 54° |
| 2026-05-05 00:22 | 34.74481 | -117.02737 | 23283 ft | 520 kts | 54° |
| 2026-05-05 00:22 | 34.76594 | -116.99138 | 23528 ft | 523 kts | 54° |
| 2026-05-05 00:23 | 34.78702 | -116.95543 | 23773 ft | 526 kts | 54° |
| 2026-05-05 00:23 | 34.80841 | -116.91891 | 24009 ft | 529 kts | 54° |
| 2026-05-05 00:23 | 34.82981 | -116.88236 | 24245 ft | 531 kts | 54° |
| 2026-05-05 00:23 | 34.85122 | -116.84572 | 24480 ft | 534 kts | 54° |
| 2026-05-05 00:24 | 34.87277 | -116.80878 | 24706 ft | 537 kts | 54° |
| 2026-05-05 00:24 | 34.89445 | -116.77161 | 24930 ft | 539 kts | 55° |
| 2026-05-05 00:24 | 34.91683 | -116.73492 | 25156 ft | 542 kts | 51° |
| 2026-05-05 00:24 | 34.94083 | -116.69991 | 25391 ft | 545 kts | 47° |
| 2026-05-05 00:25 | 34.96655 | -116.66547 | 25626 ft | 547 kts | 46° |
| 2026-05-05 00:25 | 34.99233 | -116.63176 | 25845 ft | 550 kts | 46° |
| 2026-05-05 00:25 | 35.01857 | -116.59759 | 26066 ft | 553 kts | 46° |
| 2026-05-05 00:25 | 35.04491 | -116.56319 | 26291 ft | 555 kts | 46° |
| 2026-05-05 00:26 | 35.07120 | -116.52870 | 26513 ft | 558 kts | 46° |
| 2026-05-05 00:26 | 35.09760 | -116.49387 | 26735 ft | 560 kts | 46° |
| 2026-05-05 00:26 | 35.12465 | -116.45821 | 26939 ft | 563 kts | 46° |
| 2026-05-05 00:26 | 35.15110 | -116.42332 | 27138 ft | 565 kts | 47° |
| 2026-05-05 00:27 | 35.17765 | -116.38817 | 27345 ft | 567 kts | 47° |
| 2026-05-05 00:27 | 35.20461 | -116.35232 | 27543 ft | 569 kts | 47° |
| 2026-05-05 00:27 | 35.23186 | -116.31607 | 27720 ft | 572 kts | 47° |
| 2026-05-05 00:27 | 35.25947 | -116.27932 | 27886 ft | 574 kts | 47° |
| 2026-05-05 00:28 | 35.28706 | -116.24258 | 28061 ft | 576 kts | 48° |
| 2026-05-05 00:28 | 35.31427 | -116.20634 | 28274 ft | 577 kts | 48° |
| 2026-05-05 00:28 | 35.34127 | -116.17030 | 28497 ft | 577 kts | 48° |
| 2026-05-05 00:28 | 35.36823 | -116.13420 | 28706 ft | 578 kts | 47° |
| 2026-05-05 00:29 | 35.39548 | -116.09783 | 28926 ft | 579 kts | 47° |
| 2026-05-05 00:29 | 35.42270 | -116.06142 | 29150 ft | 579 kts | 48° |
| 2026-05-05 00:29 | 35.44980 | -116.02522 | 29355 ft | 581 kts | 48° |
| 2026-05-05 00:29 | 35.47707 | -115.98836 | 29556 ft | 582 kts | 47° |
| 2026-05-05 00:30 | 35.50452 | -115.95145 | 29776 ft | 583 kts | 47° |
| 2026-05-05 00:30 | 35.53164 | -115.91496 | 30028 ft | 582 kts | 47° |
| 2026-05-05 00:30 | 35.55884 | -115.87834 | 30298 ft | 581 kts | 47° |
| 2026-05-05 00:30 | 35.58596 | -115.84190 | 30586 ft | 579 kts | 47° |
| 2026-05-05 00:31 | 35.61335 | -115.80511 | 30846 ft | 579 kts | 47° |
| 2026-05-05 00:31 | 35.64028 | -115.76854 | 31050 ft | 579 kts | 47° |
| 2026-05-05 00:31 | 35.66711 | -115.73196 | 31230 ft | 581 kts | 47° |
| 2026-05-05 00:31 | 35.69420 | -115.69490 | 31365 ft | 583 kts | 47° |
| 2026-05-05 00:32 | 35.72121 | -115.65781 | 31486 ft | 586 kts | 48° |
| 2026-05-05 00:32 | 35.74853 | -115.62019 | 31603 ft | 589 kts | 48° |
| 2026-05-05 00:32 | 35.77591 | -115.58243 | 31715 ft | 591 kts | 48° |
| 2026-05-05 00:32 | 35.80297 | -115.54505 | 31842 ft | 593 kts | 48° |
| 2026-05-05 00:33 | 35.83040 | -115.50713 | 31980 ft | 594 kts | 48° |
| 2026-05-05 00:33 | 35.85801 | -115.46891 | 32114 ft | 596 kts | 48° |
| 2026-05-05 00:33 | 35.88546 | -115.43085 | 32264 ft | 598 kts | 48° |
| 2026-05-05 00:33 | 35.91297 | -115.39267 | 32439 ft | 598 kts | 48° |
| 2026-05-05 00:34 | 35.94048 | -115.35444 | 32620 ft | 599 kts | 48° |
| 2026-05-05 00:34 | 35.96836 | -115.31568 | 32783 ft | 599 kts | 49° |
| 2026-05-05 00:34 | 35.99595 | -115.27724 | 32899 ft | 600 kts | 49° |
| 2026-05-05 00:35 | 36.05106 | -115.20033 | 32915 ft | 601 kts | 49° |
| 2026-05-05 00:35 | 36.10357 | -115.11970 | 32889 ft | 599 kts | 56° |
| 2026-05-05 00:36 | 36.15078 | -115.03594 | 32871 ft | 595 kts | 57° |
| 2026-05-05 00:36 | 36.19761 | -114.95123 | 32843 ft | 593 kts | 57° |
| 2026-05-05 00:37 | 36.24422 | -114.86743 | 32825 ft | 591 kts | 56° |
| 2026-05-05 00:37 | 36.29053 | -114.78436 | 32828 ft | 589 kts | 56° |
| 2026-05-05 00:38 | 36.33690 | -114.70102 | 32830 ft | 588 kts | 56° |
| 2026-05-05 00:38 | 36.38329 | -114.61743 | 32818 ft | 587 kts | 56° |
| 2026-05-05 00:39 | 36.42942 | -114.53417 | 32804 ft | 586 kts | 56° |
| 2026-05-05 00:39 | 36.47533 | -114.45105 | 32792 ft | 584 kts | 56° |
| 2026-05-05 00:40 | 36.52099 | -114.36814 | 32793 ft | 584 kts | 56° |
| 2026-05-05 00:40 | 36.56690 | -114.28460 | 32798 ft | 584 kts | 56° |
| 2026-05-05 00:41 | 36.61242 | -114.20152 | 32805 ft | 584 kts | 56° |
| 2026-05-05 00:41 | 36.65816 | -114.11790 | 32811 ft | 584 kts | 56° |
| 2026-05-05 00:42 | 36.70367 | -114.03456 | 32804 ft | 584 kts | 56° |
| 2026-05-05 00:42 | 36.74918 | -113.95097 | 32797 ft | 584 kts | 56° |
| 2026-05-05 00:43 | 36.79475 | -113.86707 | 32828 ft | 584 kts | 56° |
| 2026-05-05 00:43 | 36.83989 | -113.78369 | 32865 ft | 584 kts | 56° |
| 2026-05-05 00:44 | 36.88529 | -113.69958 | 32903 ft | 585 kts | 56° |
| 2026-05-05 00:44 | 36.93071 | -113.61530 | 32903 ft | 585 kts | 56° |
| 2026-05-05 00:45 | 36.97601 | -113.53108 | 32877 ft | 586 kts | 55° |
| 2026-05-05 00:45 | 37.02146 | -113.44634 | 32844 ft | 587 kts | 55° |
| 2026-05-05 00:46 | 37.06667 | -113.36182 | 32864 ft | 588 kts | 55° |
| 2026-05-05 00:46 | 37.11205 | -113.27682 | 32900 ft | 588 kts | 56° |
| 2026-05-05 00:47 | 37.15727 | -113.19186 | 32939 ft | 588 kts | 56° |
| 2026-05-05 00:47 | 37.20269 | -113.10624 | 33006 ft | 588 kts | 56° |
| 2026-05-05 00:48 | 37.24771 | -113.02116 | 33093 ft | 588 kts | 56° |
| 2026-05-05 00:48 | 37.29279 | -112.93580 | 33035 ft | 588 kts | 56° |
| 2026-05-05 00:49 | 37.33802 | -112.84993 | 32982 ft | 588 kts | 56° |
| 2026-05-05 00:49 | 37.38315 | -112.76405 | 32843 ft | 589 kts | 56° |
| 2026-05-05 00:50 | 37.42788 | -112.67866 | 32662 ft | 588 kts | 56° |
| 2026-05-05 00:50 | 37.47278 | -112.59277 | 32627 ft | 588 kts | 56° |
| 2026-05-05 00:51 | 37.51758 | -112.50677 | 32844 ft | 587 kts | 56° |
| 2026-05-05 00:51 | 37.53978 | -112.46410 | 32962 ft | 587 kts | 56° |
| 2026-05-05 00:51 | 37.56197 | -112.42138 | 33052 ft | 587 kts | 56° |
| 2026-05-05 00:52 | 37.60650 | -112.33546 | 33099 ft | 587 kts | 56° |
| 2026-05-05 00:52 | 37.65087 | -112.24945 | 33078 ft | 587 kts | 56° |
| 2026-05-05 00:53 | 37.69474 | -112.16290 | 33054 ft | 587 kts | 57° |
| 2026-05-05 00:53 | 37.73856 | -112.07595 | 33021 ft | 586 kts | 57° |
| 2026-05-05 00:54 | 37.78216 | -111.98921 | 33014 ft | 586 kts | 57° |
| 2026-05-05 00:54 | 37.82563 | -111.90256 | 33013 ft | 586 kts | 57° |
| 2026-05-05 00:55 | 37.86922 | -111.81544 | 33027 ft | 586 kts | 57° |
| 2026-05-05 00:55 | 37.91276 | -111.72817 | 33072 ft | 586 kts | 57° |
| 2026-05-05 00:56 | 37.95598 | -111.64133 | 33098 ft | 586 kts | 57° |
| 2026-05-05 00:56 | 37.99926 | -111.55414 | 33108 ft | 586 kts | 57° |
| 2026-05-05 00:57 | 38.04243 | -111.46690 | 33083 ft | 586 kts | 57° |
| 2026-05-05 00:57 | 38.08559 | -111.37946 | 32989 ft | 585 kts | 56° |
| 2026-05-05 00:58 | 38.12859 | -111.29218 | 32990 ft | 582 kts | 57° |
| 2026-05-05 00:58 | 38.14999 | -111.24863 | 33104 ft | 581 kts | 57° |
| 2026-05-05 00:58 | 38.17133 | -111.20514 | 33156 ft | 581 kts | 57° |
| 2026-05-05 00:59 | 38.21390 | -111.11818 | 33049 ft | 579 kts | 57° |
| 2026-05-05 00:59 | 38.25627 | -111.03136 | 32902 ft | 578 kts | 57° |
| 2026-05-05 01:00 | 38.29856 | -110.94449 | 32882 ft | 577 kts | 56° |